Relevés horaires Schaffen (Belgique)


Relevés horaires à Schaffen - Jeudi 08 Nov. 2018
Heure UTC1 Température [°C] Vent [km/h] Hum. [%] Pres.4 [hPa] Visi. [Km] Nébu. [octa] Préc.5 [mm] Cond.
2m. Res. Ros. Dir.2 Vit. Moy. Raf.3
23:00 6.8 6.8 5.1 NNO 3.7 -- 5.6 89 1016.7(-1.8/3h) 18 -- -- --
22:00 6.9 6.9 5.2 E 3.7 -- 5.6 89 1017.5(-1.7/3h) 16 -- -- --
21:00 7.3 7.3 5.3 NNO 1.9 -- 7.4 87 1018.2(-1.3/3h) 17 -- -- --
20:00 7.8 7.8 5.4 E 3.7 -- 5.6 85 1018.7(-1.0/3h) 18 -- -- --
19:00 8.1 8.1 5.2 NNO 1.9 -- 7.4 82 1019.2(-0.8/3h) 20 2/8 -- --
18:00 8.7 8.7 4.7 E 3.7 -- 9.3 76 1019.6(-0.9/3h) 20 2/8 -- --
17:00 9.3 9.3 4.7 NNO 1.9 -- 3.7 73 1019.7(-0.9/3h) 20 2/8 -- --
16:00 11.3 11.3 4.8 NNO 1.9 -- 9.3 64 1020(-1.1/3h) 20 1/8 -- --
15:00 12.4 12.3 5.1 SE 5.6 -- 9.3 61 1020.5(-1.2/3h) 20 1/8 -- --
14:00 13.0 13 4.8 S 5.6 -- 9.3 57 1020.6(-1.2/3h) 20 2/8 -- --
13:00 13.3 13.3 5.8 SSE 3.7 -- 9.3 60 1021.2(-0.4/3h) 20 1/8 -- --
12:00 12.5 12.5 5.5 S 3.7 -- 9.3 62 1021.7(0.4/3h) 20 1/8 -- --
11:00 11.8 11.6 7.1 S 5.6 -- 9.3 73 1021.8(0.9/3h) 20 1/8 -- --
10:00 10.5 10.2 7.1 S 5.6 -- 9.3 79 1021.7(1.3/3h) 20 1/8 -- --
09:00 9.4 9.4 6.8 SO 3.7 -- 9.3 84 1021.2(2.0/3h) 20 1/8 -- --
08:00 8.0 8.0 6.7 SO 3.7 -- 7.4 91 1021(2.6/3h) 20 1/8 -- --
07:00 7.0 7.0 6.1 S 3.7 -- 5.6 94 1020.3(3.0/3h) 20 1/8 -- --
06:00 8.9 8.9 7.2 SSO 3.7 -- 14.8 89 1019.2(3.0/3h) 20 0/8 -- --
05:00 9.5 9.5 7.4 SO 3.7 -- 9.3 87 1018.2(2.9/3h) 20 1/8 -- --
04:00 10.2 10.2 8.0 SO 3.7 -- 9.3 86 1017.2(2.9/3h) 20 -- -- --
03:00 10.3 9.9 8.1 SSO 5.6 9.3 14.8 86 1016.2(2.5/3h) 20 -- -- --
02:00 10.6 9.8 7.9 SSO 7.4 -- 13.0 83 1015.2(2.4/3h) 20 -- -- --
01:00 10.8 9.7 7.7 S 9.3 -- 14.8 81 1014.2(2.0/3h) 20 -- -- --
00:00 10.8 10.1 7.8 S 7.4 -- 16.7 82 1013.6(2.1/3h) 20 -- -- --

1 Coordinated Universal Time. Actuellement il est 03:00 locale et 02:00 UTC.

2 Le vent souffle depuis la direction indiquée vers la direction oposée.

3 Les rafales max. sont disponible 40 min après l'heure du relevé.

4 Pour les stations d'altitude (plus de 600m) le géopotentiel du niveau le plus proche de la pression obligatoire est indiqué.

5 Les stations disposant d'un diffuseur peuvent indiquer "trace". Cela signifie que des précipitations ont touchés le sol mais que la quantité est inférieure à 0.1 mm.

Récapitulatif de la journée
Température [°C] Vent [km/h] Ensoleillement4 [h] Precipitations totale5 [mm] Pression [Hpa]
Min1 Max.2 Moy.3 Max. Min Max.
8.8 13.4 9.3 16.7 0 h 0 min 0 1013.6 1021.8

1 Température minimale relevée entre 18:00 UTC la veille et 18:00 UTC le jour donné.

2 Température maximale relevée entre 06:00 UTC le jour donné et 06:00 UTC le lendemain.

3 Vent moyen de la journée basé sur les relevés horaires.

4 Ensoleillement en heures relevé entre 06:00 UTC la veille et 06:00 UTC le jour donné.

5 Précipitations totales tombées entre 06:00 UTC la jour donné et 06:00 UTC le lendemain.

Graphiques horaires